createdAt,value
2022-11-16T00:01:07.494Z,102060.72
2022-11-16T00:03:35.080Z,102057.94
2022-11-16T00:06:05.506Z,102065.81
2022-11-16T00:08:36.002Z,102054.78
2022-11-16T00:11:08.148Z,102058.22
2022-11-16T00:13:36.978Z,102047.63
2022-11-16T00:16:06.264Z,102042.41
2022-11-16T00:18:34.585Z,102046.91
2022-11-16T00:21:05.516Z,102040.75
2022-11-16T00:23:36.043Z,102041.72
2022-11-16T00:26:05.978Z,102043.38
2022-11-16T00:28:34.360Z,102043.34
2022-11-16T00:31:04.636Z,102047.63
2022-11-16T00:33:33.291Z,102045.19
2022-11-16T00:36:11.958Z,102040.84
2022-11-16T00:38:39.856Z,102039.97
2022-11-16T00:41:08.501Z,102033.72
2022-11-16T00:43:36.547Z,102040.03
2022-11-16T00:46:04.840Z,102045.19
2022-11-16T00:48:32.920Z,102047.03
2022-11-16T00:51:00.918Z,102048.78
2022-11-16T00:53:28.449Z,102055.69
2022-11-16T00:55:55.885Z,102062.97
2022-11-16T00:58:23.444Z,102055.78
2022-11-16T01:00:51.376Z,102062.22
2022-11-16T01:03:19.218Z,102059.59
2022-11-16T01:05:46.921Z,102062.13
2022-11-16T01:08:14.449Z,102060.25
2022-11-16T01:10:42.210Z,102053.38
2022-11-16T01:13:10.874Z,102063.06
2022-11-16T01:15:38.297Z,102068.31
2022-11-16T01:18:05.814Z,102067.50
2022-11-16T01:20:33.617Z,102073.59
2022-11-16T01:23:01.439Z,102070.88
2022-11-16T01:25:29.165Z,102068.34
2022-11-16T01:27:57.225Z,102068.41
2022-11-16T01:30:25.010Z,102076.31
2022-11-16T01:32:52.758Z,102083.28
2022-11-16T01:35:20.643Z,102088.63
2022-11-16T01:37:48.169Z,102085.31
2022-11-16T01:40:15.704Z,102081.84
2022-11-16T01:42:43.453Z,102088.94
2022-11-16T01:45:21.351Z,102096.91
2022-11-16T01:47:49.780Z,102088.13
2022-11-16T01:50:19.026Z,102083.69
2022-11-16T01:52:53.992Z,102083.63
2022-11-16T01:55:22.842Z,102080.97
2022-11-16T01:57:50.921Z,102082.69
2022-11-16T02:00:19.378Z,102082.94
2022-11-16T02:02:47.117Z,102084.66
2022-11-16T02:05:19.313Z,102083.91
2022-11-16T02:08:15.382Z,102086.53
2022-11-16T02:11:21.151Z,102081.28
2022-11-16T02:14:12.963Z,102073.41
2022-11-16T02:17:08.288Z,102081.34
2022-11-16T02:19:57.259Z,102078.91
2022-11-16T02:22:39.586Z,102074.44
2022-11-16T02:25:30.671Z,102076.97
2022-11-16T02:28:29.393Z,102077.88
2022-11-16T02:31:00.231Z,102071.06
2022-11-16T02:33:34.927Z,102078.91
2022-11-16T02:36:04.834Z,102084.16
2022-11-16T02:38:37.335Z,102081.53
2022-11-16T02:41:21.713Z,102081.50
2022-11-16T02:43:56.774Z,102081.59
2022-11-16T02:46:31.287Z,102087.59
2022-11-16T02:49:03.181Z,102088.44
2022-11-16T02:51:33.453Z,102092.84
2022-11-16T02:54:15.566Z,102091.13
2022-11-16T02:56:51.873Z,102093.75
2022-11-16T02:59:21.268Z,102093.75
2022-11-16T03:01:57.975Z,102088.47
2022-11-16T03:04:32.256Z,102081.59
2022-11-16T03:07:03.882Z,102083.47
2022-11-16T03:09:34.993Z,102083.44
2022-11-16T03:12:08.657Z,102086.84
2022-11-16T03:14:42.324Z,102074.63
2022-11-16T03:17:17.850Z,102081.72
2022-11-16T03:19:56.401Z,102076.56
2022-11-16T03:22:35.685Z,102071.34
2022-11-16T03:25:03.849Z,102076.50
2022-11-16T03:27:38.257Z,102087.84
2022-11-16T03:30:09.121Z,102077.38
2022-11-16T03:32:42.794Z,102082.66
2022-11-16T03:35:19.701Z,102078.41
2022-11-16T03:37:49.931Z,102080.06
2022-11-16T03:40:19.274Z,102071.44
2022-11-16T03:42:49.631Z,102072.25
2022-11-16T03:45:18.990Z,102072.19
2022-11-16T03:47:46.802Z,102076.50
2022-11-16T03:50:14.655Z,102064.53
2022-11-16T03:52:42.135Z,102068.03
2022-11-16T03:55:09.876Z,102071.66
2022-11-16T03:57:37.441Z,102071.81
2022-11-16T04:00:07.579Z,102076.22
2022-11-16T04:02:35.104Z,102073.53
2022-11-16T04:05:20.809Z,102071.31
2022-11-16T04:08:07.157Z,102075.81
2022-11-16T04:10:53.390Z,102076.75
2022-11-16T04:13:47.295Z,102067.16
2022-11-16T04:16:33.879Z,102077.72
2022-11-16T04:19:20.306Z,102067.50
2022-11-16T04:22:12.109Z,102067.25
2022-11-16T04:24:44.230Z,102067.16
2022-11-16T04:27:33.423Z,102057.53
2022-11-16T04:30:02.919Z,102058.25
2022-11-16T04:32:49.797Z,102053.84
2022-11-16T04:35:36.211Z,102057.38
2022-11-16T04:38:03.972Z,102063.63
2022-11-16T04:40:31.665Z,102061.13
2022-11-16T04:43:01.365Z,102061.16
2022-11-16T04:45:55.636Z,102066.38
2022-11-16T04:48:23.375Z,102061.31
2022-11-16T04:50:50.807Z,102063.31
2022-11-16T04:53:18.643Z,102064.91
2022-11-16T04:55:46.309Z,102066.72
2022-11-16T04:58:13.744Z,102063.47
2022-11-16T05:00:41.255Z,102067.69
2022-11-16T05:03:08.771Z,102066.72
2022-11-16T05:05:36.600Z,102063.13
2022-11-16T05:08:04.130Z,102064.91
2022-11-16T05:10:31.561Z,102064.91
2022-11-16T05:12:59.037Z,102064.19
2022-11-16T05:15:26.479Z,102064.16
2022-11-16T05:17:55.792Z,102055.66
2022-11-16T05:20:41.658Z,102059.28
2022-11-16T05:23:29.068Z,102058.34
2022-11-16T05:25:56.516Z,102060.16
2022-11-16T05:28:24.494Z,102052.53
2022-11-16T05:30:52.193Z,102049.19
2022-11-16T05:33:19.974Z,102046.69
2022-11-16T05:35:51.087Z,102043.97
2022-11-16T05:38:19.637Z,102038.88
2022-11-16T05:40:47.096Z,102035.41
2022-11-16T05:43:14.550Z,102042.13
2022-11-16T05:45:43.313Z,102040.38
2022-11-16T05:48:11.054Z,102038.59
2022-11-16T05:50:42.590Z,102040.38
2022-11-16T05:53:10.647Z,102042.91
2022-11-16T05:55:38.055Z,102032.44
2022-11-16T05:58:05.889Z,102043.78
2022-11-16T06:00:33.614Z,102039.28
2022-11-16T06:03:01.139Z,102046.16
2022-11-16T06:05:28.630Z,102043.63
2022-11-16T06:07:56.081Z,102047.84
2022-11-16T06:10:23.677Z,102045.94
2022-11-16T06:12:51.474Z,102046.09
2022-11-16T06:15:19.502Z,102058.28
2022-11-16T06:17:46.938Z,102043.53
2022-11-16T06:20:14.832Z,102047.91
2022-11-16T06:22:42.610Z,102053.09
2022-11-16T06:25:11.069Z,102058.34
2022-11-16T06:27:41.964Z,102058.31
2022-11-16T06:30:09.749Z,102053.06
2022-11-16T06:32:37.221Z,102061.63
2022-11-16T06:35:05.403Z,102064.34
2022-11-16T06:37:33.138Z,102060.81
2022-11-16T06:40:00.635Z,102066.91
2022-11-16T06:42:28.355Z,102064.06
2022-11-16T06:44:56.221Z,102071.88
2022-11-16T06:47:24.935Z,102070.16
2022-11-16T06:49:52.761Z,102066.88
2022-11-16T06:52:20.650Z,102071.16
2022-11-16T06:54:48.225Z,102068.59
2022-11-16T06:57:15.645Z,102081.78
2022-11-16T06:59:43.139Z,102081.66
2022-11-16T07:02:11.484Z,102079.00
2022-11-16T07:04:38.953Z,102073.78
2022-11-16T07:07:06.536Z,102085.03
2022-11-16T07:09:33.964Z,102082.44
2022-11-16T07:12:01.438Z,102083.19
2022-11-16T07:14:28.908Z,102083.13
2022-11-16T07:16:59.797Z,102077.97
2022-11-16T07:19:28.633Z,102076.22
2022-11-16T07:21:56.074Z,102085.84
2022-11-16T07:24:23.518Z,102083.22
2022-11-16T07:26:50.935Z,102080.63
2022-11-16T07:29:19.493Z,102085.84
2022-11-16T07:31:47.576Z,102084.97
2022-11-16T07:34:14.853Z,102087.50
2022-11-16T07:36:42.649Z,102080.84
2022-11-16T07:39:10.459Z,102089.66
2022-11-16T07:41:45.216Z,102085.22
2022-11-16T07:44:13.137Z,102078.22
2022-11-16T07:46:48.691Z,102084.53
2022-11-16T07:49:18.393Z,102079.09
2022-11-16T07:51:46.285Z,102085.06
2022-11-16T07:54:15.195Z,102086.94
2022-11-16T07:56:42.775Z,102093.84
2022-11-16T07:59:11.409Z,102084.19
2022-11-16T08:01:39.296Z,102093.00
2022-11-16T08:04:07.001Z,102086.69
2022-11-16T08:06:34.570Z,102087.59
2022-11-16T08:09:02.218Z,102089.25
2022-11-16T08:11:29.982Z,102084.94
2022-11-16T08:13:58.071Z,102090.22
2022-11-16T08:16:25.657Z,102088.69
2022-11-16T08:18:53.365Z,102087.09
2022-11-16T08:21:21.234Z,102087.94
2022-11-16T08:23:50.678Z,102087.72
2022-11-16T08:26:22.526Z,102091.25
2022-11-16T08:28:53.672Z,102087.66
2022-11-16T08:31:24.273Z,102093.16
2022-11-16T08:33:52.508Z,102095.53
2022-11-16T08:36:20.735Z,102098.47
2022-11-16T08:38:50.067Z,102103.66
2022-11-16T08:41:18.009Z,102096.56
2022-11-16T08:43:47.309Z,102094.66
2022-11-16T08:46:15.543Z,102095.53
2022-11-16T08:48:43.758Z,102098.06
2022-11-16T08:51:18.926Z,102093.69
2022-11-16T08:53:49.151Z,102095.28
2022-11-16T08:56:18.471Z,102092.59
2022-11-16T08:58:53.810Z,102089.13
2022-11-16T09:01:27.149Z,102097.03
2022-11-16T09:03:55.235Z,102100.53
2022-11-16T09:06:24.721Z,102099.97
2022-11-16T09:08:53.169Z,102097.50
2022-11-16T09:11:23.361Z,102100.19
2022-11-16T09:13:52.966Z,102093.94
2022-11-16T09:16:21.368Z,102097.19
2022-11-16T09:18:50.792Z,102104.19
2022-11-16T09:21:24.049Z,102083.94
2022-11-16T09:23:52.069Z,102079.53
2022-11-16T09:26:22.954Z,102083.94
2022-11-16T09:29:13.110Z,102086.53
2022-11-16T09:31:41.590Z,102082.09
2022-11-16T09:34:09.151Z,102076.88
2022-11-16T09:36:36.723Z,102088.22
2022-11-16T09:39:28.766Z,102081.97
2022-11-16T09:42:19.871Z,102081.19
2022-11-16T09:45:05.218Z,102080.53
2022-11-16T09:47:59.499Z,102076.75
2022-11-16T09:50:33.515Z,102078.53
2022-11-16T09:53:14.195Z,102075.66
2022-11-16T09:55:48.806Z,102071.41
2022-11-16T09:58:23.941Z,102069.50
2022-11-16T10:00:58.929Z,102066.16
2022-11-16T10:03:28.999Z,102070.66
2022-11-16T10:06:04.794Z,102052.41
2022-11-16T10:08:43.389Z,102048.75
2022-11-16T10:11:22.904Z,102050.56
2022-11-16T10:14:16.046Z,102051.09
2022-11-16T10:17:01.981Z,102047.03
2022-11-16T10:19:55.157Z,102041.63
2022-11-16T10:22:41.496Z,102049.75
2022-11-16T10:25:16.838Z,102049.59
2022-11-16T10:27:47.151Z,102047.22
2022-11-16T10:30:21.919Z,102045.31
2022-11-16T10:32:59.484Z,102045.13
2022-11-16T10:35:34.101Z,102052.13
2022-11-16T10:38:05.671Z,102049.41
2022-11-16T10:40:38.300Z,102050.22
2022-11-16T10:43:15.085Z,102061.75
2022-11-16T10:46:02.801Z,102054.50
2022-11-16T10:48:37.504Z,102066.09
2022-11-16T10:51:05.951Z,102053.97
2022-11-16T10:53:35.155Z,102053.44
2022-11-16T10:56:40.510Z,102058.59
2022-11-16T10:59:10.374Z,102064.97
2022-11-16T11:01:53.364Z,102057.81
2022-11-16T11:04:26.609Z,102061.91
2022-11-16T11:06:55.761Z,102061.22
2022-11-16T11:09:30.121Z,102062.72
2022-11-16T11:12:17.828Z,102063.91
2022-11-16T11:15:02.430Z,102062.88
2022-11-16T11:17:33.292Z,102061.91
2022-11-16T11:20:04.536Z,102054.28
2022-11-16T11:22:34.998Z,102056.22
2022-11-16T11:25:03.605Z,102058.22
2022-11-16T11:27:35.406Z,102067.69
2022-11-16T11:30:03.961Z,102054.28
2022-11-16T11:32:38.418Z,102058.75
2022-11-16T11:35:06.941Z,102053.78
2022-11-16T11:37:37.812Z,102052.50
2022-11-16T11:40:20.414Z,102054.91
2022-11-16T11:43:16.243Z,102056.00
2022-11-16T11:46:47.337Z,102064.00
2022-11-16T11:49:19.802Z,102060.34
2022-11-16T11:51:49.068Z,102069.00
2022-11-16T11:54:45.629Z,102069.25
2022-11-16T11:57:20.625Z,102064.97
2022-11-16T11:59:50.540Z,102067.59
2022-11-16T12:02:26.916Z,102065.75
2022-11-16T12:05:15.831Z,102069.22
2022-11-16T12:07:51.699Z,102074.31
2022-11-16T12:10:19.100Z,102071.72
2022-11-16T12:13:21.785Z,102071.78
2022-11-16T12:15:58.016Z,102063.38
2022-11-16T12:18:57.942Z,102064.84
2022-11-16T12:21:55.171Z,102068.94
2022-11-16T12:24:28.700Z,102062.19
2022-11-16T12:27:11.731Z,102058.66
2022-11-16T12:29:48.196Z,102067.59
2022-11-16T12:32:18.806Z,102063.16
2022-11-16T12:34:59.707Z,102066.91
2022-11-16T12:37:53.663Z,102067.91
2022-11-16T12:41:02.802Z,102059.03
2022-11-16T12:44:02.807Z,102056.31
2022-11-16T12:47:02.928Z,102053.63
2022-11-16T12:50:05.875Z,102052.72
2022-11-16T12:52:45.346Z,102044.81
2022-11-16T12:55:26.682Z,102047.50
2022-11-16T12:58:02.962Z,102041.22
2022-11-16T13:00:50.197Z,102034.13
2022-11-16T13:03:21.153Z,102033.16
2022-11-16T13:06:03.585Z,102034.75
2022-11-16T13:08:55.756Z,102039.09
2022-11-16T13:11:29.011Z,102040.09
2022-11-16T13:14:01.507Z,102040.94
2022-11-16T13:16:29.700Z,102036.50
2022-11-16T13:18:59.537Z,102039.88
2022-11-16T13:21:38.731Z,102042.56
2022-11-16T13:24:35.208Z,102042.41
2022-11-16T13:27:21.925Z,102038.38
2022-11-16T13:30:21.972Z,102029.59
2022-11-16T13:32:57.067Z,102034.97
2022-11-16T13:35:24.841Z,102037.38
2022-11-16T13:37:52.653Z,102034.75
2022-11-16T13:40:23.878Z,102038.22
2022-11-16T13:43:09.279Z,102041.78
2022-11-16T13:45:48.959Z,102035.63
2022-11-16T13:48:22.338Z,102036.47
2022-11-16T13:50:58.921Z,102040.78
2022-11-16T13:56:25.603Z,102040.22
2022-11-16T14:01:27.060Z,102048.00
2022-11-16T14:04:44.079Z,102047.16
2022-11-16T14:07:29.313Z,102053.19
2022-11-16T14:09:57.228Z,102054.03
2022-11-16T14:12:51.903Z,102055.25
2022-11-16T14:15:30.103Z,102056.91
2022-11-16T14:18:00.120Z,102066.63
2022-11-16T14:20:33.764Z,102057.00
2022-11-16T14:23:15.638Z,102053.53
2022-11-16T14:25:59.290Z,102050.22
2022-11-16T14:28:48.484Z,102049.44
2022-11-16T14:31:21.215Z,102046.91
2022-11-16T14:33:55.658Z,102050.38
2022-11-16T14:36:40.110Z,102054.66
2022-11-16T14:39:26.260Z,102049.84
2022-11-16T14:41:56.851Z,102049.19
2022-11-16T14:44:27.816Z,102050.72
2022-11-16T14:46:56.497Z,102049.81
2022-11-16T14:49:26.727Z,102043.81
2022-11-16T14:51:59.395Z,102050.84
2022-11-16T14:54:36.656Z,102056.09
2022-11-16T14:57:17.888Z,102056.88
2022-11-16T14:59:45.759Z,102048.97
2022-11-16T15:02:24.274Z,102046.56
2022-11-16T15:04:53.310Z,102049.50
2022-11-16T15:07:26.264Z,102044.34
2022-11-16T15:09:56.820Z,102043.25
2022-11-16T15:12:41.752Z,102045.13
2022-11-16T15:15:12.050Z,102039.75
2022-11-16T15:17:41.329Z,102044.84
2022-11-16T15:20:24.717Z,102042.28
2022-11-16T15:22:55.197Z,102048.41
2022-11-16T15:25:26.474Z,102043.22
2022-11-16T15:27:56.484Z,102047.75
2022-11-16T15:30:37.040Z,102043.31
2022-11-16T15:33:39.208Z,102035.63
2022-11-16T15:36:23.465Z,102032.84
2022-11-16T15:38:54.902Z,102040.69
2022-11-16T15:41:24.638Z,102029.38
2022-11-16T15:44:13.391Z,102031.19
2022-11-16T15:46:48.206Z,102027.69
2022-11-16T15:49:26.694Z,102023.31
2022-11-16T15:51:54.234Z,102029.34
2022-11-16T15:54:23.683Z,102028.41
2022-11-16T15:56:55.064Z,102021.53
2022-11-16T15:59:31.458Z,102020.72
2022-11-16T16:01:59.525Z,102024.06
2022-11-16T16:04:28.950Z,102031.75
2022-11-16T16:07:12.624Z,102020.56
2022-11-16T16:09:41.150Z,102018.84
2022-11-16T16:12:18.217Z,102017.00
2022-11-16T16:14:48.497Z,102023.31
2022-11-16T16:17:23.455Z,102018.25
2022-11-16T16:20:02.961Z,102025.03
2022-11-16T16:22:33.506Z,102019.03
2022-11-16T16:25:01.711Z,102025.00
2022-11-16T16:27:31.304Z,102021.50
2022-11-16T16:30:04.897Z,102017.94
2022-11-16T16:32:34.815Z,102028.34
2022-11-16T16:35:07.366Z,102022.38
2022-11-16T16:37:36.834Z,102029.53
2022-11-16T16:40:07.209Z,102023.47
2022-11-16T16:42:34.612Z,102024.25
2022-11-16T16:45:02.631Z,102020.94
2022-11-16T16:47:31.088Z,102030.53
2022-11-16T16:49:58.859Z,102025.63
2022-11-16T16:52:27.752Z,102021.19
2022-11-16T16:54:55.532Z,102020.16
2022-11-16T16:57:23.383Z,102019.47
2022-11-16T16:59:51.405Z,102013.19
2022-11-16T17:02:19.305Z,102011.63
2022-11-16T17:04:48.459Z,102009.91
2022-11-16T17:07:16.507Z,102013.41
2022-11-16T17:09:44.670Z,102009.75
2022-11-16T17:12:12.474Z,102013.09
2022-11-16T17:14:40.016Z,102019.13
2022-11-16T17:17:07.987Z,102016.59
2022-11-16T17:19:36.002Z,102010.63
2022-11-16T17:22:03.736Z,102006.28
2022-11-16T17:24:31.281Z,102001.25
2022-11-16T17:27:00.079Z,102012.53
2022-11-16T17:29:28.682Z,102006.41
2022-11-16T17:31:56.713Z,102012.47
2022-11-16T17:34:24.492Z,102002.88
2022-11-16T17:36:52.080Z,102010.91
2022-11-16T17:39:20.165Z,102012.59
2022-11-16T17:41:48.021Z,102030.13
2022-11-16T17:44:21.670Z,102011.75
2022-11-16T17:46:50.214Z,102011.72
2022-11-16T17:49:18.542Z,102015.22
2022-11-16T17:51:46.083Z,102010.69
2022-11-16T17:54:13.924Z,102022.84
2022-11-16T17:56:41.834Z,102020.31
2022-11-16T17:59:09.608Z,102028.13
2022-11-16T18:01:37.336Z,102025.53
2022-11-16T18:04:05.057Z,102017.69
2022-11-16T18:06:33.276Z,102020.63
2022-11-16T18:09:01.019Z,102025.13
2022-11-16T18:11:29.097Z,102033.88
2022-11-16T18:14:01.143Z,102025.97
2022-11-16T18:16:31.766Z,102028.59
2022-11-16T18:19:02.098Z,102022.53
2022-11-16T18:21:30.542Z,102023.53
2022-11-16T18:24:01.186Z,102022.81
2022-11-16T18:26:29.545Z,102023.69
2022-11-16T18:28:58.005Z,102029.75
2022-11-16T18:31:26.081Z,102027.09
2022-11-16T18:33:54.157Z,102027.09
2022-11-16T18:36:23.016Z,102024.44
2022-11-16T18:38:51.126Z,102030.47
2022-11-16T18:41:22.046Z,102027.81
2022-11-16T18:43:54.970Z,102031.25
2022-11-16T18:46:25.738Z,102032.94
2022-11-16T18:48:54.429Z,102031.13
2022-11-16T18:51:23.772Z,102027.63
2022-11-16T18:53:51.745Z,102022.34
2022-11-16T18:56:19.641Z,102027.72
2022-11-16T18:58:52.495Z,102019.19
2022-11-16T19:01:23.757Z,102016.50
2022-11-16T19:03:52.988Z,102019.19
2022-11-16T19:06:21.481Z,102025.28
2022-11-16T19:08:56.302Z,102025.31
2022-11-16T19:11:25.019Z,102022.75
2022-11-16T19:13:55.139Z,102015.09
2022-11-16T19:16:24.802Z,102020.28
2022-11-16T19:18:53.231Z,102013.31
2022-11-16T19:21:24.474Z,102009.81
2022-11-16T19:23:54.374Z,102013.25
2022-11-16T19:26:24.928Z,102001.09
2022-11-16T19:28:53.451Z,102005.44
2022-11-16T19:31:29.341Z,102003.59
2022-11-16T19:34:02.000Z,101999.94
2022-11-16T19:36:31.283Z,102005.06
2022-11-16T19:38:59.811Z,102006.78
2022-11-16T19:41:28.641Z,102001.34
2022-11-16T19:43:59.956Z,101997.94
2022-11-16T19:46:29.369Z,101997.84
2022-11-16T19:48:57.179Z,101996.91
2022-11-16T19:51:27.594Z,101993.44
2022-11-16T19:53:55.791Z,101993.31
2022-11-16T19:56:24.155Z,102001.19
2022-11-16T19:58:52.429Z,101998.66
2022-11-16T20:01:21.747Z,102001.25
2022-11-16T20:03:51.017Z,102004.75
2022-11-16T20:06:24.478Z,102001.28
2022-11-16T20:08:55.940Z,102013.53
2022-11-16T20:11:25.819Z,102004.03
2022-11-16T20:13:56.400Z,101997.03
2022-11-16T20:16:26.922Z,101998.09
2022-11-16T20:18:55.278Z,101991.94
2022-11-16T20:21:33.083Z,101996.31
2022-11-16T20:24:06.829Z,101998.13
2022-11-16T20:26:36.984Z,102009.34
2022-11-16T20:29:04.820Z,101998.81
2022-11-16T20:31:33.426Z,101991.91
2022-11-16T20:34:04.106Z,102001.53
2022-11-16T20:36:32.700Z,102001.56
2022-11-16T20:39:00.912Z,101992.97
2022-11-16T20:41:32.545Z,101998.09
2022-11-16T20:44:01.516Z,101995.44
2022-11-16T20:46:30.229Z,102002.28
2022-11-16T20:49:00.850Z,102004.84
2022-11-16T20:51:29.869Z,102003.06
2022-11-16T20:53:58.173Z,102003.13
2022-11-16T20:56:27.080Z,102003.16
2022-11-16T20:58:54.832Z,102005.84
2022-11-16T21:01:33.860Z,102006.72
2022-11-16T21:04:04.002Z,101999.75
2022-11-16T21:06:33.089Z,102004.09
2022-11-16T21:09:00.982Z,102000.63
2022-11-16T21:11:30.887Z,101997.09
2022-11-16T21:14:16.564Z,101985.94
2022-11-16T21:16:44.870Z,101984.19
2022-11-16T21:19:13.213Z,101995.66
2022-11-16T21:21:41.426Z,101982.53
2022-11-16T21:24:09.807Z,101981.72
2022-11-16T21:26:37.788Z,101985.13
2022-11-16T21:29:05.958Z,101980.78
2022-11-16T21:31:36.167Z,101974.75
2022-11-16T21:34:04.730Z,101971.22
2022-11-16T21:36:33.213Z,101971.28
2022-11-16T21:39:00.944Z,101971.28
2022-11-16T21:41:28.549Z,101972.06
2022-11-16T21:43:56.474Z,101969.47
2022-11-16T21:46:26.230Z,101970.31
2022-11-16T21:48:56.672Z,101968.59
2022-11-16T21:51:26.902Z,101969.41
2022-11-16T21:53:54.915Z,101974.63
2022-11-16T21:56:24.911Z,101965.03
2022-11-16T21:58:53.666Z,101971.94
2022-11-16T22:01:22.337Z,101960.53
2022-11-16T22:04:09.920Z,101960.53
2022-11-16T22:06:56.234Z,101957.97
2022-11-16T22:09:23.856Z,101962.25
2022-11-16T22:11:51.652Z,101959.44
2022-11-16T22:14:19.394Z,101956.94
2022-11-16T22:16:46.918Z,101951.72
2022-11-16T22:19:14.702Z,101946.63
2022-11-16T22:21:42.418Z,101953.53
2022-11-16T22:24:09.853Z,101947.59
2022-11-16T22:26:38.189Z,101948.38
2022-11-16T22:29:05.595Z,101952.78
2022-11-16T22:31:33.139Z,101953.63
2022-11-16T22:34:00.588Z,101949.41
2022-11-16T22:36:28.198Z,101951.09
2022-11-16T22:38:57.155Z,101948.47
2022-11-16T22:41:24.517Z,101948.47
2022-11-16T22:43:51.983Z,101948.41
2022-11-16T22:46:19.512Z,101946.72
2022-11-16T22:48:47.954Z,101950.16
2022-11-16T22:51:20.017Z,101951.22
2022-11-16T22:53:51.975Z,101943.47
2022-11-16T22:56:19.427Z,101943.59
2022-11-16T22:58:47.384Z,101949.69
2022-11-16T23:01:15.045Z,101950.50
2022-11-16T23:03:42.704Z,101944.41
2022-11-16T23:06:10.703Z,101945.13
2022-11-16T23:08:40.025Z,101949.44
2022-11-16T23:11:29.770Z,101945.91
2022-11-16T23:14:16.374Z,101942.22
2022-11-16T23:16:44.303Z,101932.47
2022-11-16T23:19:52.418Z,101922.81
2022-11-16T23:22:40.389Z,101937.47
2022-11-16T23:25:29.874Z,101929.66
2022-11-16T23:28:16.152Z,101936.59
2022-11-16T23:30:44.519Z,101933.91
2022-11-16T23:33:12.281Z,101926.06
2022-11-16T23:35:39.739Z,101917.34
2022-11-16T23:38:08.252Z,101910.56
2022-11-16T23:40:38.737Z,101912.34
2022-11-16T23:43:25.674Z,101910.56
2022-11-16T23:45:53.423Z,101909.88
2022-11-16T23:48:20.939Z,101905.63
2022-11-16T23:50:48.467Z,101901.19
2022-11-16T23:53:16.155Z,101898.56
2022-11-16T23:55:43.608Z,101899.44
2022-11-16T23:58:13.881Z,101894.06
